Time;durP1;ratioP1;P1;durP2;ratioP2;P2;SDS_P1;SDS_P2;PMS_P1;PMS_P2;Temp;Humidity;BMP_temperature;BMP_pressure;BME280_temperature;BME280_humidity;BME280_pressure;Samples;Min_cycle;Max_cycle;Signal;HPM_P1;HPM_P2
2021/12/11 00:02:13;;;;;;;14.37;8.80;;;3.80;69.50;;;;;;4997665;28;20050;-81
2021/12/11 00:04:42;;;;;;;15.20;8.70;;;3.80;69.60;;;;;;4963901;28;20398;-81
2021/12/11 00:07:11;;;;;;;14.03;8.10;;;3.70;69.40;;;;;;4976003;28;20027;-81
2021/12/11 00:09:46;;;;;;;14.63;8.73;;;3.70;69.70;;;;;;4997676;28;20132;-81
2021/12/11 00:12:25;;;;;;;16.90;8.53;;;3.70;69.70;;;;;;4979537;28;20037;-81
2021/12/11 00:15:02;;;;;;;12.67;8.83;;;3.70;69.60;;;;;;4989881;28;20058;-81
2021/12/11 00:17:31;;;;;;;13.53;8.57;;;3.70;69.60;;;;;;4983124;28;20114;-81
2021/12/11 00:19:58;;;;;;;12.07;7.70;;;3.60;69.40;;;;;;4975415;28;20110;-81
2021/12/11 00:22:27;;;;;;;15.47;8.70;;;3.60;69.60;;;;;;4975683;28;20051;-81
2021/12/11 00:24:58;;;;;;;13.17;8.43;;;3.70;69.50;;;;;;4970957;28;20058;-81
2021/12/11 00:27:29;;;;;;;11.23;8.07;;;3.50;69.20;;;;;;4968960;28;20482;-81
2021/12/11 00:29:56;;;;;;;17.63;8.87;;;3.50;69.50;;;;;;4958599;28;20387;-81
2021/12/11 00:32:31;;;;;;;13.87;8.73;;;3.60;69.50;;;;;;4998179;28;20030;-81
2021/12/11 00:35:09;;;;;;;12.90;8.60;;;3.60;69.30;;;;;;4981922;28;20034;-81
2021/12/11 00:37:37;;;;;;;11.73;8.40;;;3.50;69.30;;;;;;4991797;28;20057;-81
2021/12/11 00:40:22;;;;;;;12.27;9.53;;;3.50;69.30;;;;;;4972326;28;20033;-81
2021/12/11 00:42:51;;;;;;;12.73;8.60;;;3.50;69.30;;;;;;4977713;28;20482;-81
2021/12/11 00:45:21;;;;;;;15.37;8.63;;;3.50;69.40;;;;;;4976561;28;20478;-81
2021/12/11 00:47:52;;;;;;;14.33;8.60;;;3.50;69.40;;;;;;4961495;28;20029;-81
2021/12/11 00:50:25;;;;;;;14.97;8.33;;;3.60;69.30;;;;;;4970470;28;20031;-81
2021/12/11 00:53:24;;;;;;;11.07;8.35;;;3.60;69.30;;;;;;4988061;28;20445;-81
2021/12/11 00:55:53;;;;;;;16.63;8.10;;;3.50;69.30;;;;;;4990894;28;20119;-81
2021/12/11 00:58:30;;;;;;;13.77;9.07;;;3.60;69.20;;;;;;4981560;28;20089;-81
2021/12/11 01:01:13;;;;;;;16.53;9.87;;;3.60;69.10;;;;;;4971502;28;20034;-81
2021/12/11 01:03:45;;;;;;;15.50;9.40;;;3.60;69.10;;;;;;4982765;28;20026;-81
2021/12/11 01:06:16;;;;;;;12.20;8.10;;;3.60;69.20;;;;;;4996500;28;20028;-81
2021/12/11 01:08:52;;;;;;;11.27;7.73;;;3.60;69.20;;;;;;4971810;28;20061;-81
2021/12/11 01:11:17;;;;;;;13.07;7.77;;;3.60;69.00;;;;;;4997451;28;20065;-81
2021/12/11 01:14:05;;;;;;;10.97;7.43;;;3.60;69.00;;;;;;4991689;28;20485;-81
2021/12/11 01:16:31;;;;;;;12.10;7.80;;;3.50;68.80;;;;;;4996977;28;20052;-81
2021/12/11 01:19:00;;;;;;;10.43;7.00;;;3.50;69.20;;;;;;4991062;28;20145;-81
2021/12/11 01:24:16;;;;;;;13.77;7.43;;;3.50;69.40;;;;;;4994381;28;20485;-81
2021/12/11 01:26:49;;;;;;;13.07;6.90;;;3.50;69.40;;;;;;4980262;28;20033;-81
2021/12/11 01:29:18;;;;;;;9.80;6.97;;;3.60;69.50;;;;;;4967848;28;20035;-81
2021/12/11 01:31:45;;;;;;;9.93;6.13;;;3.60;69.60;;;;;;4976272;28;20456;-80
2021/12/11 01:34:12;;;;;;;10.93;7.20;;;3.60;69.50;;;;;;4992636;28;20039;-81
2021/12/11 01:36:39;;;;;;;10.40;7.57;;;3.60;69.30;;;;;;4990798;28;20030;-81
2021/12/11 01:39:12;;;;;;;13.40;6.50;;;3.70;69.40;;;;;;4973303;28;20038;-81
2021/12/11 01:41:39;;;;;;;11.07;7.23;;;3.70;69.50;;;;;;4970630;28;20107;-81
2021/12/11 01:44:16;;;;;;;9.77;7.00;;;3.80;69.40;;;;;;4989422;28;20038;-81
2021/12/11 01:46:43;;;;;;;9.80;5.83;;;3.80;69.40;;;;;;4982042;28;20030;-80
2021/12/11 01:49:17;;;;;;;7.87;5.23;;;3.80;69.20;;;;;;4986175;28;20359;-81
2021/12/11 01:51:52;;;;;;;8.33;5.17;;;3.70;69.20;;;;;;4991177;28;20038;-81
2021/12/11 01:54:27;;;;;;;9.33;5.60;;;3.70;69.50;;;;;;4989708;28;20030;-81
2021/12/11 01:57:08;;;;;;;7.40;5.50;;;3.80;69.40;;;;;;4966407;28;20204;-81
2021/12/11 01:59:40;;;;;;;7.87;5.03;;;3.90;69.60;;;;;;4986893;28;20026;-81
2021/12/11 02:02:12;;;;;;;6.40;4.63;;;4.00;69.70;;;;;;4966652;28;20034;-81
2021/12/11 02:04:42;;;;;;;7.57;3.83;;;4.00;69.60;;;;;;4970733;28;20034;-81
2021/12/11 02:07:12;;;;;;;7.20;5.00;;;4.10;69.40;;;;;;4985848;28;20031;-81
2021/12/11 02:09:44;;;;;;;8.53;4.70;;;4.00;69.10;;;;;;4979453;28;20490;-81
2021/12/11 02:12:17;;;;;;;5.57;4.10;;;4.00;69.20;;;;;;4969344;28;20030;-81
2021/12/11 02:14:48;;;;;;;7.17;4.43;;;3.90;69.30;;;;;;4963858;28;20039;-81
2021/12/11 02:17:30;;;;;;;7.73;5.13;;;3.90;69.20;;;;;;4984621;28;20030;-81
2021/12/11 02:20:00;;;;;;;10.50;7.30;;;3.90;69.20;;;;;;4983347;28;20031;-81
2021/12/11 02:22:31;;;;;;;10.73;7.27;;;3.80;69.10;;;;;;4989551;28;20074;-81
2021/12/11 02:25:07;;;;;;;11.75;7.10;;;3.80;69.40;;;;;;4994511;28;20109;-81
2021/12/11 02:27:40;;;;;;;11.23;6.30;;;3.80;69.70;;;;;;4972296;28;20089;-81
2021/12/11 02:30:09;;;;;;;;;;;3.80;69.60;;;;;;4985810;28;20030;-81
2021/12/11 02:32:39;;;;;;;10.07;8.13;;;3.80;69.50;;;;;;4992992;28;20000;-81
2021/12/11 02:35:22;;;;;;;15.97;7.80;;;3.80;69.40;;;;;;4985391;28;20070;-81
2021/12/11 02:38:14;;;;;;;11.02;7.93;;;3.80;69.40;;;;;;4972537;28;20049;-81
2021/12/11 02:40:49;;;;;;;11.10;7.50;;;3.80;69.40;;;;;;4981489;28;20026;-81
2021/12/11 02:43:28;;;;;;;6.57;5.00;;;3.80;69.50;;;;;;4990345;28;20042;-81
2021/12/11 02:46:11;;;;;;;11.30;5.10;;;3.70;69.30;;;;;;4962068;28;20037;-81
2021/12/11 02:48:51;;;;;;;5.93;4.30;;;3.70;69.70;;;;;;4980205;28;20033;-81
2021/12/11 02:51:25;;;;;;;5.77;4.40;;;3.70;69.60;;;;;;4983588;28;20049;-80
2021/12/11 02:54:16;;;;;;;7.27;4.37;;;3.70;69.70;;;;;;4983348;28;20761;-81
2021/12/11 02:56:50;;;;;;;7.40;3.83;;;3.70;69.60;;;;;;4973015;28;20053;-80
2021/12/11 02:59:21;;;;;;;6.80;4.10;;;3.70;69.70;;;;;;4972705;28;20096;-81
2021/12/11 03:02:02;;;;;;;6.83;4.00;;;3.70;69.70;;;;;;4992993;28;20023;-81
2021/12/11 03:04:36;;;;;;;6.27;4.50;;;3.70;69.80;;;;;;4972826;28;21707;-81
2021/12/11 03:07:07;;;;;;;6.17;4.30;;;3.70;69.80;;;;;;4969139;28;20026;-81
2021/12/11 03:09:35;;;;;;;7.07;3.97;;;3.80;69.50;;;;;;4982853;28;20023;-81
2021/12/11 03:12:06;;;;;;;8.90;4.33;;;3.80;69.70;;;;;;4992869;28;20036;-81
2021/12/11 03:14:32;;;;;;;8.23;3.77;;;3.80;69.80;;;;;;4995383;28;20023;-81
2021/12/11 03:16:59;;;;;;;6.30;4.10;;;3.70;69.80;;;;;;4982798;28;20538;-80
2021/12/11 03:19:29;;;;;;;6.53;3.83;;;3.80;69.80;;;;;;4962986;28;20034;-81
2021/12/11 03:21:56;;;;;;;6.87;4.27;;;3.80;69.80;;;;;;4984194;28;20023;-81
2021/12/11 03:24:24;;;;;;;6.43;4.03;;;3.80;69.70;;;;;;4982839;28;20026;-81
2021/12/11 03:26:52;;;;;;;8.37;4.23;;;3.80;69.90;;;;;;4978950;28;20042;-81
2021/12/11 03:29:19;;;;;;;6.67;4.20;;;3.80;69.80;;;;;;4971501;28;20113;-81
2021/12/11 03:31:46;;;;;;;6.53;4.37;;;3.80;69.60;;;;;;4975284;28;20030;-80
2021/12/11 03:34:17;;;;;;;5.93;4.17;;;3.80;69.70;;;;;;4987751;28;20356;-81
2021/12/11 03:36:43;;;;;;;6.70;4.43;;;3.80;69.70;;;;;;4984577;28;20468;-80
2021/12/11 03:39:25;;;;;;;11.43;7.53;;;3.80;69.60;;;;;;4975378;28;20065;-81
2021/12/11 03:41:53;;;;;;;11.73;6.67;;;3.80;69.60;;;;;;4969037;28;20402;-81
2021/12/11 03:44:20;;;;;;;9.43;6.13;;;3.80;69.70;;;;;;4996630;28;20113;-81
2021/12/11 03:46:51;;;;;;;8.60;5.63;;;3.80;69.80;;;;;;4990659;28;20029;-80
2021/12/11 03:49:20;;;;;;;10.13;6.93;;;3.80;69.70;;;;;;4982692;28;20027;-81
2021/12/11 03:51:48;;;;;;;10.10;6.23;;;3.80;69.60;;;;;;4983890;28;20386;-81
2021/12/11 03:54:20;;;;;;;10.83;6.87;;;3.80;69.60;;;;;;4962005;28;20023;-80
2021/12/11 03:56:46;;;;;;;16.57;8.27;;;3.80;69.60;;;;;;4968012;28;20070;-81
2021/12/11 03:59:14;;;;;;;11.80;8.03;;;3.80;69.70;;;;;;4966013;28;20761;-80
2021/12/11 04:01:49;;;;;;;14.30;7.93;;;3.80;69.70;;;;;;4973286;28;20487;-81
2021/12/11 04:04:18;;;;;;;11.50;8.40;;;3.80;69.70;;;;;;4975404;28;20022;-81
2021/12/11 04:06:44;;;;;;;14.57;10.00;;;3.80;69.80;;;;;;4966372;28;20533;-80
2021/12/11 04:09:12;;;;;;;13.57;8.37;;;3.80;69.70;;;;;;4983928;28;20030;-81
2021/12/11 04:11:40;;;;;;;11.30;8.50;;;3.80;69.60;;;;;;4985455;28;20162;-81
2021/12/11 04:14:17;;;;;;;13.47;8.73;;;3.80;69.80;;;;;;4971847;28;20034;-81
2021/12/11 04:16:44;;;;;;;15.83;9.13;;;3.90;70.00;;;;;;4988760;28;20037;-81
2021/12/11 04:19:12;;;;;;;17.37;9.77;;;3.90;69.80;;;;;;4977388;28;20041;-81
2021/12/11 04:21:39;;;;;;;11.27;8.43;;;3.80;69.60;;;;;;4982852;28;20019;-81
2021/12/11 04:24:07;;;;;;;12.43;9.10;;;3.80;70.00;;;;;;4981024;28;20026;-80
2021/12/11 04:26:33;;;;;;;14.37;9.80;;;3.70;70.10;;;;;;4991527;28;20096;-81
2021/12/11 04:29:00;;;;;;;13.30;8.97;;;3.80;70.30;;;;;;4982588;28;20026;-81
2021/12/11 04:31:29;;;;;;;11.47;7.80;;;3.80;70.30;;;;;;4981826;28;20382;-81
2021/12/11 04:33:59;;;;;;;10.93;7.70;;;3.80;70.10;;;;;;4984792;28;20413;-81
2021/12/11 04:36:31;;;;;;;10.77;7.33;;;3.90;70.20;;;;;;4987323;28;20438;-80
2021/12/11 04:38:59;;;;;;;8.48;5.85;;;3.80;70.00;;;;;;4997152;28;20101;-81
2021/12/11 04:41:35;;;;;;;9.47;6.83;;;3.80;70.30;;;;;;4972267;28;20501;-81
2021/12/11 04:44:04;;;;;;;10.23;6.73;;;3.90;70.40;;;;;;4971029;28;20448;-80
2021/12/11 04:46:30;;;;;;;12.67;7.43;;;3.90;70.10;;;;;;4982018;28;20027;-81
2021/12/11 04:49:13;;;;;;;15.77;9.80;;;3.90;70.10;;;;;;4984167;28;20065;-81
2021/12/11 04:51:48;;;;;;;16.42;9.80;;;3.90;70.00;;;;;;4984260;28;20106;-81
2021/12/11 04:54:36;;;;;;;14.80;10.20;;;3.90;70.10;;;;;;4961180;28;20062;-80
2021/12/11 05:00:10;;;;;;;16.93;10.40;;;3.90;70.10;;;;;;4984952;28;20150;-81
2021/12/11 05:03:12;;;;;;;15.37;10.43;;;3.90;70.20;;;;;;4978960;28;20755;-80
2021/12/11 05:10:57;;;;;;;20.67;10.97;;;3.80;70.30;;;;;;4981962;28;20541;-81
2021/12/11 05:13:24;;;;;;;16.17;11.50;;;3.80;70.50;;;;;;4982690;28;20076;-81
2021/12/11 05:15:53;;;;;;;14.63;11.17;;;3.70;70.30;;;;;;4963135;28;20859;-81
2021/12/11 05:18:24;;;;;;;20.03;10.67;;;3.70;70.50;;;;;;4978505;28;20048;-81
2021/12/11 05:20:55;;;;;;;13.67;9.00;;;3.70;70.80;;;;;;4968184;28;20023;-80
2021/12/11 05:23:22;;;;;;;14.63;10.37;;;3.80;70.90;;;;;;4976746;28;20027;-80
2021/12/11 05:25:48;;;;;;;11.87;9.13;;;3.80;70.80;;;;;;4967198;28;20631;-81
2021/12/11 05:28:15;;;;;;;17.43;8.60;;;3.80;70.60;;;;;;4982715;28;20034;-81
2021/12/11 05:30:45;;;;;;;14.93;9.47;;;3.80;70.70;;;;;;4969494;28;20027;-81
2021/12/11 05:33:11;;;;;;;16.87;9.90;;;3.80;70.80;;;;;;4994567;28;20064;-80
2021/12/11 05:35:39;;;;;;;17.73;11.47;;;3.80;70.60;;;;;;4978175;28;20506;-81
2021/12/11 05:38:07;;;;;;;19.33;11.90;;;3.80;70.40;;;;;;4980328;28;20050;-81
2021/12/11 05:40:35;;;;;;;22.13;11.73;;;3.80;70.60;;;;;;4971404;28;20050;-81
2021/12/11 05:43:02;;;;;;;19.73;11.93;;;3.70;70.70;;;;;;4997289;28;21406;-81
2021/12/11 05:45:28;;;;;;;14.90;10.97;;;3.70;70.80;;;;;;4987093;28;20493;-80
2021/12/11 05:47:54;;;;;;;17.87;11.73;;;3.70;70.80;;;;;;4994065;28;20088;-81
2021/12/11 05:50:32;;;;;;;22.90;11.37;;;3.70;70.90;;;;;;4966621;28;20402;-81
2021/12/11 05:52:58;;;;;;;19.20;11.60;;;3.70;70.90;;;;;;4981708;28;20096;-81
2021/12/11 05:55:26;;;;;;;17.47;11.90;;;3.80;71.10;;;;;;4982199;28;20446;-81
2021/12/11 05:57:56;;;;;;;19.27;11.83;;;3.80;70.90;;;;;;4965698;28;20034;-81
2021/12/11 06:00:29;;;;;;;17.83;11.57;;;3.80;70.90;;;;;;4962654;28;20036;-81
2021/12/11 06:02:55;;;;;;;15.73;10.87;;;3.80;70.90;;;;;;4965733;28;20038;-81
2021/12/11 06:05:24;;;;;;;16.07;10.80;;;3.80;70.70;;;;;;4978806;28;20041;-81
2021/12/11 06:07:52;;;;;;;17.93;12.20;;;3.80;70.80;;;;;;4960443;28;20039;-81
2021/12/11 06:10:20;;;;;;;19.30;13.83;;;3.80;70.70;;;;;;4980643;28;20116;-81
2021/12/11 06:12:52;;;;;;;21.73;13.13;;;3.80;70.70;;;;;;4961877;28;20042;-81
2021/12/11 06:15:18;;;;;;;23.93;13.50;;;3.80;70.70;;;;;;4963578;28;20026;-80
2021/12/11 06:17:45;;;;;;;20.73;13.10;;;3.80;70.90;;;;;;4971888;28;20118;-81
2021/12/11 06:20:16;;;;;;;23.37;13.37;;;3.80;70.80;;;;;;4962662;28;20023;-80
2021/12/11 06:22:43;;;;;;;19.97;12.40;;;3.80;70.90;;;;;;4973196;28;20033;-80
2021/12/11 06:25:12;;;;;;;18.10;12.17;;;3.80;71.10;;;;;;4970933;28;20482;-80
2021/12/11 06:27:39;;;;;;;21.70;13.40;;;3.80;71.00;;;;;;4959106;28;20817;-81
2021/12/11 06:30:07;;;;;;;19.30;13.57;;;3.80;70.90;;;;;;4981493;28;20022;-81
2021/12/11 06:32:33;;;;;;;23.33;13.57;;;3.90;70.90;;;;;;4982972;28;20026;-80
2021/12/11 06:35:01;;;;;;;20.53;13.53;;;3.90;70.80;;;;;;4960863;28;20045;-81
2021/12/11 06:37:27;;;;;;;23.53;13.30;;;3.90;70.70;;;;;;4969362;28;20034;-81
2021/12/11 06:39:53;;;;;;;21.23;13.20;;;3.90;70.70;;;;;;4959170;28;20038;-81
2021/12/11 06:42:20;;;;;;;19.93;13.93;;;3.90;70.70;;;;;;4965398;28;20030;-81
2021/12/11 06:44:48;;;;;;;23.00;13.80;;;3.90;70.80;;;;;;4964934;28;20522;-81
2021/12/11 06:47:15;;;;;;;21.47;14.73;;;3.90;70.70;;;;;;4985313;28;20089;-80
2021/12/11 06:49:42;;;;;;;25.03;15.37;;;3.90;70.70;;;;;;4980810;28;20034;-80
2021/12/11 06:52:12;;;;;;;21.57;14.80;;;3.90;70.70;;;;;;4966812;28;20034;-81
2021/12/11 06:54:38;;;;;;;21.67;14.10;;;3.90;70.80;;;;;;4984742;28;20042;-80
2021/12/11 06:57:05;;;;;;;21.27;14.60;;;3.90;70.80;;;;;;4964806;28;20047;-81
2021/12/11 06:59:31;;;;;;;20.03;13.23;;;3.90;70.80;;;;;;4988719;28;20529;-80
2021/12/11 07:01:57;;;;;;;19.50;13.67;;;3.90;70.70;;;;;;4962392;28;20058;-81
2021/12/11 07:04:23;;;;;;;20.10;14.17;;;3.80;70.80;;;;;;4975175;28;20045;-81
2021/12/11 07:06:52;;;;;;;22.63;16.10;;;3.80;70.80;;;;;;4984732;28;20433;-81
2021/12/11 07:09:19;;;;;;;28.73;18.73;;;3.80;71.10;;;;;;4966596;28;20038;-80
2021/12/11 07:11:46;;;;;;;25.00;16.57;;;3.80;71.30;;;;;;4979452;28;20030;-81
2021/12/11 07:14:14;;;;;;;28.30;19.10;;;3.80;71.20;;;;;;4976669;28;20077;-81
2021/12/11 07:16:40;;;;;;;31.07;19.53;;;3.80;71.20;;;;;;4973482;28;20033;-81
2021/12/11 07:19:08;;;;;;;24.87;17.63;;;3.80;71.40;;;;;;4974340;28;20035;-80
2021/12/11 07:21:34;;;;;;;24.40;17.03;;;3.90;71.40;;;;;;4994701;28;20562;-81
2021/12/11 07:24:00;;;;;;;22.67;14.70;;;3.90;71.20;;;;;;4982066;28;20023;-81
2021/12/11 07:26:32;;;;;;;23.17;15.43;;;3.90;71.20;;;;;;4985884;28;20031;-81
2021/12/11 07:29:03;;;;;;;22.27;16.60;;;3.90;71.20;;;;;;4971333;28;20490;-81
2021/12/11 07:31:30;;;;;;;21.67;14.60;;;3.90;71.00;;;;;;4992896;28;20088;-81
2021/12/11 07:33:56;;;;;;;26.23;14.73;;;3.80;71.00;;;;;;4967180;28;20394;-81
2021/12/11 07:36:23;;;;;;;28.23;17.97;;;3.80;71.20;;;;;;4981572;28;20177;-81
2021/12/11 07:38:50;;;;;;;22.97;15.63;;;3.80;71.20;;;;;;4980966;28;20483;-81
2021/12/11 07:41:17;;;;;;;25.37;16.70;;;3.80;71.20;;;;;;4990015;28;20027;-81
2021/12/11 07:43:45;;;;;;;23.20;16.20;;;3.80;71.40;;;;;;4973504;28;20276;-81
2021/12/11 07:46:14;;;;;;;24.63;16.87;;;3.80;71.30;;;;;;4982529;28;20413;-81
2021/12/11 07:48:42;;;;;;;24.20;16.13;;;3.80;71.40;;;;;;4968601;28;20034;-81
2021/12/11 07:51:07;;;;;;;21.23;16.80;;;3.80;71.30;;;;;;4987639;28;20027;-81
2021/12/11 07:53:33;;;;;;;89.73;52.10;;;3.90;71.50;;;;;;4997254;28;20453;-81
2021/12/11 07:56:00;;;;;;;88.10;46.13;;;3.90;71.40;;;;;;4979911;28;20121;-81
2021/12/11 07:58:29;;;;;;;89.47;42.67;;;3.90;71.40;;;;;;4987232;28;20029;-81
2021/12/11 08:00:55;;;;;;;60.37;33.43;;;4.00;71.50;;;;;;4969354;28;20054;-81
2021/12/11 08:03:21;;;;;;;51.57;27.83;;;4.00;71.40;;;;;;4969190;28;20027;-81
2021/12/11 08:05:49;;;;;;;80.07;46.67;;;3.90;71.20;;;;;;4982111;28;20434;-81
2021/12/11 08:08:15;;;;;;;37.50;25.40;;;3.90;71.50;;;;;;4991986;28;20023;-81
2021/12/11 08:10:45;;;;;;;37.50;26.93;;;3.90;71.40;;;;;;4982348;28;20057;-81
2021/12/11 08:13:11;;;;;;;33.40;24.23;;;3.90;71.20;;;;;;4968549;28;20044;-81
2021/12/11 08:15:39;;;;;;;62.47;30.27;;;3.90;71.30;;;;;;4974804;28;20113;-81
2021/12/11 08:18:08;;;;;;;50.47;29.63;;;4.00;71.60;;;;;;4967404;28;20030;-81
2021/12/11 08:20:35;;;;;;;37.10;23.50;;;4.00;71.60;;;;;;4987800;28;20062;-81
2021/12/11 08:23:01;;;;;;;47.60;27.57;;;4.00;71.70;;;;;;4977343;28;20027;-81
2021/12/11 08:25:29;;;;;;;37.03;23.07;;;4.00;71.90;;;;;;4989214;28;20421;-80
2021/12/11 08:27:57;;;;;;;47.13;28.60;;;4.00;71.80;;;;;;4964493;28;20138;-80
2021/12/11 08:30:24;;;;;;;35.60;24.37;;;4.10;71.70;;;;;;4988809;28;20042;-80
2021/12/11 08:32:51;;;;;;;30.77;20.63;;;4.10;71.80;;;;;;4988669;28;20132;-80
2021/12/11 08:35:17;;;;;;;32.03;21.83;;;4.20;71.60;;;;;;4979644;28;20058;-80
2021/12/11 08:37:47;;;;;;;29.33;20.33;;;4.20;71.50;;;;;;4963478;28;20026;-81
2021/12/11 08:40:17;;;;;;;27.23;19.10;;;4.20;71.40;;;;;;4982174;28;20036;-80
2021/12/11 08:42:44;;;;;;;33.27;21.13;;;4.30;71.50;;;;;;4992428;28;20081;-81
2021/12/11 08:45:13;;;;;;;34.53;23.63;;;4.20;71.30;;;;;;4986490;28;20022;-81
2021/12/11 08:47:41;;;;;;;27.73;20.80;;;4.30;71.50;;;;;;4978901;28;20567;-81
2021/12/11 08:50:11;;;;;;;28.70;19.73;;;4.30;71.30;;;;;;4983213;28;20031;-80
2021/12/11 08:52:40;;;;;;;29.10;18.80;;;4.30;71.40;;;;;;4986571;28;20474;-81
2021/12/11 08:55:11;;;;;;;25.00;17.37;;;4.30;71.20;;;;;;4999123;28;20469;-81
2021/12/11 08:57:40;;;;;;;30.90;19.43;;;4.30;71.30;;;;;;4979638;28;20449;-80
2021/12/11 09:00:18;;;;;;;28.40;20.23;;;4.30;71.30;;;;;;4976429;28;20514;-81
2021/12/11 09:02:59;;;;;;;33.70;21.30;;;4.30;71.60;;;;;;4974711;28;20026;-81
2021/12/11 09:05:45;;;;;;;31.40;22.67;;;4.20;71.30;;;;;;4994254;28;20474;-80
2021/12/11 09:08:15;;;;;;;26.97;20.03;;;4.20;71.50;;;;;;4977068;28;20027;-81
2021/12/11 09:10:53;;;;;;;37.40;23.07;;;4.20;71.40;;;;;;4976884;28;20117;-81
2021/12/11 09:13:44;;;;;;;29.10;21.00;;;4.20;71.50;;;;;;4983029;28;20029;-81
2021/12/11 09:16:24;;;;;;;27.23;18.77;;;4.20;71.60;;;;;;4993538;28;20038;-81
2021/12/11 09:18:56;;;;;;;58.20;32.07;;;4.20;71.40;;;;;;4974859;28;20058;-81
2021/12/11 09:21:33;;;;;;;63.47;30.92;;;4.20;71.40;;;;;;4957522;28;20371;-80
2021/12/11 09:24:08;;;;;;;38.13;25.73;;;4.20;71.60;;;;;;4974906;28;20031;-81
2021/12/11 09:26:40;;;;;;;56.30;35.87;;;4.30;71.60;;;;;;4957645;28;20481;-80
2021/12/11 09:29:30;;;;;;;38.50;24.73;;;4.30;71.80;;;;;;4979503;28;20097;-81
2021/12/11 09:32:18;;;;;;;40.37;28.37;;;4.30;71.80;;;;;;4976630;28;20034;-81
2021/12/11 09:35:10;;;;;;;31.87;21.50;;;4.30;71.80;;;;;;4994004;28;20037;-81
2021/12/11 09:37:36;;;;;;;29.90;21.70;;;4.40;71.50;;;;;;4976579;28;20045;-81
2021/12/11 09:40:08;;;;;;;49.60;33.13;;;4.40;71.60;;;;;;4976102;28;20018;-81
2021/12/11 09:42:34;;;;;;;35.17;23.45;;;4.50;71.60;;;;;;4960364;28;20166;-81
2021/12/11 09:45:21;;;;;;;30.73;23.43;;;4.50;71.80;;;;;;4957167;28;20038;-81
2021/12/11 09:48:05;;;;;;;38.67;22.70;;;4.50;71.70;;;;;;4974406;28;20034;-81
2021/12/11 09:50:45;;;;;;;28.23;20.93;;;4.60;71.50;;;;;;4976254;28;20512;-81
2021/12/11 09:53:14;;;;;;;34.53;22.57;;;4.60;71.20;;;;;;4976276;28;20031;-81
2021/12/11 09:55:40;;;;;;;33.33;21.90;;;4.60;71.20;;;;;;4973187;28;20379;-79
2021/12/11 09:58:11;;;;;;;30.20;22.70;;;4.60;71.30;;;;;;4956916;28;20185;-80
2021/12/11 10:00:45;;;;;;;29.37;22.03;;;4.60;71.40;;;;;;4956941;28;20034;-80
2021/12/11 10:03:13;;;;;;;36.07;23.27;;;4.50;71.60;;;;;;4978672;28;20026;-80
2021/12/11 10:05:55;;;;;;;31.33;22.77;;;4.50;71.40;;;;;;4976136;28;20398;-80
2021/12/11 10:08:36;;;;;;;30.55;22.75;;;4.50;71.50;;;;;;4976688;28;20027;-80
2021/12/11 10:11:11;;;;;;;33.70;24.90;;;4.50;71.30;;;;;;4991984;28;20026;-79
2021/12/11 10:13:43;;;;;;;40.30;26.23;;;4.50;71.60;;;;;;4976119;28;20046;-80
2021/12/11 10:16:09;;;;;;;37.85;24.42;;;4.50;71.60;;;;;;4976000;28;20031;-80
2021/12/11 10:18:35;;;;;;;52.53;28.87;;;4.60;71.60;;;;;;4991457;28;20027;-80
2021/12/11 10:21:25;;;;;;;53.23;31.43;;;4.60;71.60;;;;;;4981212;28;20027;-80
2021/12/11 10:23:58;;;;;;;45.33;28.57;;;4.70;71.60;;;;;;4956863;28;20031;-80
2021/12/11 10:26:27;;;;;;;44.57;26.57;;;4.70;71.40;;;;;;4956994;28;20071;-79
2021/12/11 10:28:57;;;;;;;41.23;26.73;;;4.60;71.40;;;;;;4995989;28;20107;-80
2021/12/11 10:31:33;;;;;;;48.90;28.93;;;4.60;71.40;;;;;;4995675;28;20033;-80
2021/12/11 10:34:01;;;;;;;33.17;21.47;;;4.60;71.70;;;;;;5012915;28;20377;-80
2021/12/11 10:36:31;;;;;;;41.03;25.50;;;4.70;72.00;;;;;;5012701;28;20025;-80
2021/12/11 10:38:58;;;;;;;46.37;29.97;;;4.80;71.90;;;;;;4978967;28;20381;-80
2021/12/11 10:41:27;;;;;;;44.03;28.63;;;4.90;71.70;;;;;;4994092;28;20026;-80
2021/12/11 10:44:10;;;;;;;55.63;36.37;;;4.80;71.50;;;;;;4990933;28;20023;-80
2021/12/11 10:46:38;;;;;;;;;;;4.90;71.40;;;;;;4971634;28;20022;-80
2021/12/11 10:49:07;;;;;;;78.80;45.87;;;4.90;71.30;;;;;;4979671;28;19909;-81
2021/12/11 10:51:41;;;;;;;39.97;27.73;;;4.80;71.30;;;;;;4996683;28;20033;-81
2021/12/11 10:54:08;;;;;;;46.47;30.57;;;4.80;71.50;;;;;;4992567;28;20078;-81
2021/12/11 10:56:34;;;;;;;36.27;26.33;;;4.90;71.30;;;;;;4977352;28;20047;-81
2021/12/11 10:59:08;;;;;;;43.30;25.10;;;4.80;71.30;;;;;;4959968;28;20723;-81
2021/12/11 11:01:43;;;;;;;46.27;26.43;;;4.70;71.70;;;;;;4977424;28;20545;-81
2021/12/11 11:04:25;;;;;;;49.80;27.83;;;4.70;71.60;;;;;;4959638;28;20022;-81
2021/12/11 11:06:51;;;;;;;39.85;26.73;;;4.80;71.60;;;;;;4976701;28;20029;-81
2021/12/11 11:09:19;;;;;;;72.87;30.90;;;4.70;71.40;;;;;;4969703;28;20039;-81
2021/12/11 11:11:49;;;;;;;43.00;26.23;;;4.70;71.60;;;;;;4986560;28;20479;-81
2021/12/11 11:14:15;;;;;;;40.90;24.50;;;4.70;71.60;;;;;;4959689;28;20148;-81
2021/12/11 11:16:44;;;;;;;37.60;23.60;;;4.80;71.60;;;;;;4959434;28;20022;-81
2021/12/11 11:19:10;;;;;;;46.73;23.57;;;4.80;71.70;;;;;;4959892;28;20438;-81
2021/12/11 11:21:41;;;;;;;37.57;22.43;;;4.80;71.80;;;;;;4976683;28;20022;-81
2021/12/11 11:24:09;;;;;;;33.47;22.37;;;4.90;71.90;;;;;;4968954;28;20037;-81
2021/12/11 11:26:40;;;;;;;34.00;22.97;;;4.90;71.80;;;;;;4996162;28;20395;-80
2021/12/11 11:29:08;;;;;;;42.33;24.40;;;5.00;71.90;;;;;;4996072;28;20476;-81
2021/12/11 11:31:36;;;;;;;36.93;24.40;;;5.10;71.50;;;;;;4996285;28;20038;-81
2021/12/11 11:34:09;;;;;;;36.53;24.53;;;5.10;71.50;;;;;;4978772;28;20038;-81
2021/12/11 11:36:35;;;;;;;37.23;25.83;;;5.10;71.60;;;;;;4978151;28;20022;-81
2021/12/11 11:39:08;;;;;;;42.70;27.80;;;5.10;71.60;;;;;;4973294;28;20042;-81
2021/12/11 11:41:40;;;;;;;39.97;26.77;;;5.10;71.40;;;;;;4976671;28;20118;-81
2021/12/11 11:44:07;;;;;;;38.93;27.47;;;5.00;71.50;;;;;;4976786;28;20027;-81
2021/12/11 11:46:36;;;;;;;36.73;26.30;;;5.00;71.70;;;;;;4959618;28;20530;-81
2021/12/11 11:49:03;;;;;;;35.57;25.13;;;5.10;71.70;;;;;;4976251;28;20023;-81
2021/12/11 11:51:34;;;;;;;37.17;25.20;;;5.10;71.50;;;;;;4958177;28;20078;-81
2021/12/11 11:54:02;;;;;;;41.63;24.53;;;5.10;71.50;;;;;;4976252;28;20492;-81
2021/12/11 11:56:32;;;;;;;35.07;24.70;;;5.10;71.50;;;;;;4958643;28;20038;-80
2021/12/11 11:58:59;;;;;;;68.53;33.53;;;5.20;71.50;;;;;;4970187;28;20051;-81
2021/12/11 12:01:31;;;;;;;58.20;33.23;;;5.20;71.30;;;;;;4978192;28;20036;-81
2021/12/11 12:03:58;;;;;;;49.72;32.60;;;5.20;71.40;;;;;;4976294;28;20081;-81
2021/12/11 12:06:30;;;;;;;45.13;30.37;;;5.20;71.30;;;;;;4974780;28;20031;-81
2021/12/11 12:08:56;;;;;;;39.65;26.42;;;5.20;71.30;;;;;;4958989;28;20023;-81
2021/12/11 12:11:31;;;;;;;39.20;27.50;;;5.30;71.30;;;;;;4975937;28;20435;-81
2021/12/11 12:13:58;;;;;;;38.67;28.20;;;5.30;71.40;;;;;;4988759;28;20034;-81
2021/12/11 12:16:25;;;;;;;37.97;26.97;;;5.30;71.30;;;;;;4977903;28;20548;-81
2021/12/11 12:18:51;;;;;;;39.67;28.43;;;5.30;71.20;;;;;;4992618;28;20109;-81
2021/12/11 12:21:18;;;;;;;39.13;28.37;;;5.30;71.40;;;;;;4975781;28;20094;-80
2021/12/11 12:23:45;;;;;;;37.53;28.10;;;5.30;71.40;;;;;;4958509;28;20037;-81
2021/12/11 12:26:17;;;;;;;38.20;29.40;;;5.30;71.30;;;;;;4975160;28;20019;-81
2021/12/11 12:28:43;;;;;;;39.27;28.07;;;5.40;71.50;;;;;;4993593;28;20446;-81
2021/12/11 12:31:16;;;;;;;39.33;28.80;;;5.40;71.40;;;;;;4961791;28;20088;-81
2021/12/11 12:33:44;;;;;;;44.23;30.23;;;5.40;71.30;;;;;;4964401;28;20181;-81
2021/12/11 12:36:10;;;;;;;40.50;29.20;;;5.40;71.20;;;;;;4962837;28;20068;-81
2021/12/11 12:38:37;;;;;;;37.03;28.73;;;5.40;71.30;;;;;;4977559;28;20034;-81
2021/12/11 12:41:09;;;;;;;37.47;29.47;;;5.40;71.30;;;;;;4994842;28;20034;-81
2021/12/11 12:46:25;;;;;;;41.70;29.77;;;5.30;71.40;;;;;;4993936;28;20382;-81
2021/12/11 12:48:52;;;;;;;38.03;27.90;;;5.40;71.60;;;;;;4977712;28;20125;-81
2021/12/11 12:51:18;;;;;;;33.37;24.50;;;5.40;71.30;;;;;;4977444;28;20031;-81
2021/12/11 12:53:45;;;;;;;31.33;24.17;;;5.40;71.50;;;;;;4966587;28;20030;-81
2021/12/11 12:56:21;;;;;;;35.90;27.63;;;5.40;71.30;;;;;;4975002;28;20118;-81
2021/12/11 12:58:54;;;;;;;40.43;30.57;;;5.40;71.20;;;;;;4975348;28;20041;-81
2021/12/11 13:01:36;;;;;;;41.30;29.70;;;5.40;71.30;;;;;;4975053;28;20497;-81
2021/12/11 13:04:05;;;;;;;38.13;28.13;;;5.40;71.40;;;;;;4975191;28;20019;-81
2021/12/11 13:06:37;;;;;;;39.07;27.10;;;5.40;71.40;;;;;;4958515;28;20113;-81
2021/12/11 13:09:32;;;;;;;38.27;28.90;;;5.40;71.50;;;;;;4974954;28;20449;-81
2021/12/11 13:12:10;;;;;;;26.60;19.97;;;5.40;71.50;;;;;;4957704;28;20027;-81
2021/12/11 13:14:37;;;;;;;29.80;24.80;;;5.40;71.50;;;;;;4980698;28;20084;-81
2021/12/11 13:17:32;;;;;;;35.80;26.10;;;5.50;71.50;;;;;;4976827;28;20026;-81